Time;durP1;ratioP1;P1;durP2;ratioP2;P2;SDS_P1;SDS_P2;PMS_P1;PMS_P2;Temp;Humidity;BMP_temperature;BMP_pressure;BME280_temperature;BME280_humidity;BME280_pressure;Samples;Min_cycle;Max_cycle;Signal;HPM_P1;HPM_P2
2023/05/21 00:01:58;;;;;;;5.10;3.70;;;18.00;65.50;;;20.68;46.09;101972.72;5052269;28;20224;-68
2023/05/21 00:04:27;;;;;;;5.03;3.17;;;18.00;65.80;;;20.68;46.34;101972.72;5052291;28;20301;-70
2023/05/21 00:06:54;;;;;;;5.40;2.97;;;17.90;65.70;;;20.66;46.01;101972.09;5052221;28;20240;-68
2023/05/21 00:09:22;;;;;;;3.83;3.03;;;17.90;65.80;;;20.64;45.87;101966.13;5052506;28;20228;-68
2023/05/21 00:11:49;;;;;;;5.23;3.73;;;17.90;65.90;;;20.65;46.56;101959.75;5052657;28;20244;-68
2023/05/21 00:14:17;;;;;;;6.00;3.40;;;17.90;66.10;;;20.66;46.01;101964.06;5052145;28;20220;-68
2023/05/21 00:16:45;;;;;;;5.30;2.93;;;17.90;66.00;;;20.66;46.46;101962.22;5052919;28;20216;-68
2023/05/21 00:19:12;;;;;;;5.33;3.30;;;17.80;66.00;;;20.65;46.01;101957.06;5052868;28;20204;-68
2023/05/21 00:21:39;;;;;;;3.37;3.07;;;17.80;66.10;;;20.65;46.33;101957.06;5052671;28;20201;-68
2023/05/21 00:24:07;;;;;;;4.53;3.07;;;17.80;66.10;;;20.63;46.03;101948.44;5052428;28;20218;-68
2023/05/21 00:26:36;;;;;;;5.43;2.93;;;17.80;65.90;;;20.62;45.85;101957.50;5052436;28;20190;-68
2023/05/21 00:29:03;;;;;;;3.40;2.90;;;17.80;66.00;;;20.61;46.39;101940.59;5052528;28;20201;-68
2023/05/21 00:31:31;;;;;;;4.67;3.60;;;17.80;66.00;;;20.62;46.27;101946.78;5052728;28;20190;-68
2023/05/21 00:33:58;;;;;;;7.97;3.33;;;17.80;66.10;;;20.62;46.29;101949.47;5052050;28;20202;-69
2023/05/21 00:36:25;;;;;;;3.20;2.90;;;17.80;66.20;;;20.64;45.93;101942.03;5052739;28;20186;-68
2023/05/21 00:38:52;;;;;;;4.00;2.77;;;17.80;66.30;;;20.64;46.36;101944.72;5052593;28;20198;-69
2023/05/21 00:41:21;;;;;;;4.33;3.03;;;17.80;66.30;;;20.63;46.10;101938.56;5052354;28;20667;-69
2023/05/21 00:43:51;;;;;;;4.80;3.40;;;17.70;66.20;;;20.65;45.75;101946.38;5052574;28;20244;-69
2023/05/21 00:46:20;;;;;;;5.47;2.97;;;17.70;66.10;;;20.62;46.17;101936.09;5056292;28;20272;-68
2023/05/21 00:48:49;;;;;;;3.50;3.03;;;17.70;66.00;;;20.58;46.24;101940.22;5056308;28;20694;-68
2023/05/21 00:51:17;;;;;;;6.23;3.40;;;17.70;65.90;;;20.52;46.15;101930.34;5056301;28;20193;-67
2023/05/21 00:53:45;;;;;;;3.50;3.00;;;17.70;65.90;;;20.49;46.20;101930.78;5056077;28;20221;-67
2023/05/21 00:56:12;;;;;;;3.90;2.80;;;17.70;65.90;;;20.44;46.01;101930.59;5056300;28;20198;-68
2023/05/21 00:58:40;;;;;;;5.07;3.13;;;17.60;65.80;;;20.42;46.08;101941.47;5056382;28;20292;-68
2023/05/21 01:01:12;;;;;;;4.37;3.03;;;17.60;66.10;;;20.41;46.61;101936.34;5056434;28;20208;-68
2023/05/21 01:03:40;;;;;;;5.60;3.40;;;17.60;66.40;;;20.36;46.39;101930.81;5056048;28;20190;-67
2023/05/21 01:06:09;;;;;;;3.67;2.80;;;17.60;66.10;;;20.32;46.55;101930.41;5056179;28;20315;-69
2023/05/21 01:08:37;;;;;;;3.57;2.80;;;17.60;66.30;;;20.29;46.37;101924.66;5055660;28;20686;-69
2023/05/21 01:11:06;;;;;;;6.77;3.37;;;17.50;66.10;;;20.23;46.63;101927.13;5056192;28;20194;-68
2023/05/21 01:13:38;;;;;;;6.80;3.57;;;17.50;66.30;;;20.16;46.30;101915.59;5055738;28;20601;-68
2023/05/21 01:16:07;;;;;;;5.90;3.40;;;17.50;66.40;;;20.13;46.93;101916.00;5056067;28;20653;-68
2023/05/21 01:18:36;;;;;;;5.43;3.87;;;17.40;66.50;;;20.10;46.66;101920.94;5055686;28;20232;-68
2023/05/21 01:21:06;;;;;;;6.33;3.33;;;17.30;66.60;;;20.09;46.78;101924.66;5056699;28;20192;-68
2023/05/21 01:23:34;;;;;;;4.80;3.20;;;17.30;66.80;;;20.04;46.64;101911.91;5055705;28;20186;-68
2023/05/21 01:26:01;;;;;;;6.50;3.23;;;17.30;66.80;;;20.02;47.10;101908.63;5042357;28;20216;-68
2023/05/21 01:28:28;;;;;;;5.97;3.23;;;17.30;66.90;;;19.99;46.86;101914.38;5035799;28;20229;-69
2023/05/21 01:31:03;;;;;;;4.87;3.30;;;17.30;67.00;;;19.94;47.19;101916.88;5035951;28;20218;-69
2023/05/21 01:33:43;;;;;;;6.30;3.57;;;17.20;66.90;;;19.88;47.01;101904.31;5035120;28;20638;-69
2023/05/21 01:36:22;;;;;;;5.07;3.30;;;17.20;67.20;;;19.84;47.12;101904.94;5035404;28;20178;-69
2023/05/21 01:39:00;;;;;;;4.40;3.30;;;17.20;67.80;;;19.79;46.98;101907.41;5035327;28;20682;-69
2023/05/21 01:41:33;;;;;;;3.93;3.30;;;17.10;67.10;;;19.76;47.08;101902.47;5035313;28;20613;-69
2023/05/21 01:44:04;;;;;;;4.83;2.97;;;17.10;67.30;;;19.75;47.64;101907.00;5035340;28;20195;-69
2023/05/21 01:46:35;;;;;;;5.10;3.47;;;17.10;67.60;;;19.76;47.24;101908.63;5035658;28;20211;-67
2023/05/21 01:49:04;;;;;;;4.10;3.17;;;17.00;67.50;;;19.75;47.46;101903.50;5036037;28;20198;-68
2023/05/21 01:51:31;;;;;;;7.07;3.20;;;17.00;67.80;;;19.75;47.28;101901.66;5035552;28;20218;-68
2023/05/21 01:54:00;;;;;;;7.27;3.50;;;17.00;67.70;;;19.75;47.34;101890.97;5035136;28;20282;-68
2023/05/21 01:56:27;;;;;;;4.80;2.47;;;17.00;67.70;;;19.75;47.21;101896.31;5035080;28;20241;-68
2023/05/21 01:58:58;;;;;;;5.43;3.10;;;17.00;67.80;;;19.75;47.33;101884.81;5035323;28;20225;-67
2023/05/21 02:01:25;;;;;;;5.57;2.90;;;17.00;67.80;;;19.76;47.34;101892.59;5035262;28;20195;-68
2023/05/21 02:03:52;;;;;;;5.27;3.27;;;17.00;67.90;;;19.76;47.45;101886.44;5034799;28;20660;-68
2023/05/21 02:06:20;;;;;;;3.77;2.80;;;17.00;67.70;;;19.75;47.28;101893.66;5035095;28;20194;-68
2023/05/21 02:08:47;;;;;;;4.27;3.07;;;16.90;67.80;;;19.74;47.58;101892.00;5037595;28;20188;-68
2023/05/21 02:11:15;;;;;;;5.53;3.03;;;16.90;68.00;;;19.74;47.25;101889.31;5055228;28;20233;-68
2023/05/21 02:13:44;;;;;;;5.10;3.10;;;16.90;68.00;;;19.73;47.15;101885.00;5054793;28;20213;-68
2023/05/21 02:16:13;;;;;;;8.80;3.63;;;16.90;67.90;;;19.70;47.18;101888.09;5054799;28;20194;-69
2023/05/21 02:18:42;;;;;;;4.53;3.40;;;16.90;67.80;;;19.69;47.40;101890.97;5054881;28;20315;-68
2023/05/21 02:21:12;;;;;;;3.40;3.10;;;16.90;67.90;;;19.65;46.84;101890.56;5054830;28;20198;-68
2023/05/21 02:23:40;;;;;;;3.83;2.80;;;16.90;67.60;;;19.59;47.41;101881.50;5055041;28;20541;-68
2023/05/21 02:26:07;;;;;;;4.60;3.10;;;16.80;67.70;;;19.56;47.57;101886.47;5054485;28;20214;-68
2023/05/21 02:28:36;;;;;;;4.97;2.90;;;16.80;67.90;;;19.55;47.63;101880.28;5053171;28;20281;-68
2023/05/21 02:31:03;;;;;;;6.40;2.97;;;16.80;67.90;;;19.53;47.64;101877.00;5054807;28;20714;-68
2023/05/21 02:33:29;;;;;;;5.70;3.50;;;16.80;67.90;;;19.51;47.29;101886.25;5054294;28;20190;-68
2023/05/21 02:35:57;;;;;;;5.43;3.10;;;16.70;67.80;;;19.50;47.51;101881.91;5054590;28;20210;-68
2023/05/21 02:38:24;;;;;;;6.73;6.03;;;16.80;67.90;;;19.47;47.51;101882.31;5054692;28;20319;-68
2023/05/21 02:40:51;;;;;;;4.13;3.50;;;16.70;67.70;;;19.46;47.55;101878.03;5054673;28;20293;-68
2023/05/21 02:43:19;;;;;;;3.20;2.77;;;16.70;68.10;;;19.47;47.68;101874.31;5054424;28;20599;-68
2023/05/21 02:45:47;;;;;;;5.73;2.77;;;16.70;68.20;;;19.52;47.62;101877.19;5054307;28;20292;-67
2023/05/21 02:48:14;;;;;;;4.27;2.90;;;16.70;68.30;;;19.56;47.55;101881.91;5054344;28;20228;-68
2023/05/21 02:50:41;;;;;;;4.90;3.13;;;16.70;68.40;;;19.61;47.53;101878.66;5054218;28;20186;-68
2023/05/21 02:53:08;;;;;;;6.17;3.37;;;16.70;68.30;;;19.63;47.75;101879.25;5054188;28;20200;-67
2023/05/21 02:55:35;;;;;;;3.70;2.63;;;16.70;68.70;;;19.59;48.16;101873.50;5054039;28;20217;-67
2023/05/21 02:58:03;;;;;;;5.30;3.27;;;16.70;69.60;;;19.53;48.74;101877.00;5054025;28;20690;-68
2023/05/21 03:00:30;;;;;;;6.67;3.17;;;16.70;69.80;;;19.51;48.84;101876.38;5054100;28;20194;-67
2023/05/21 03:02:58;;;;;;;6.00;3.03;;;16.70;70.50;;;19.54;49.01;101877.81;5054076;28;20220;-69
2023/05/21 03:05:25;;;;;;;6.47;3.23;;;16.70;70.70;;;19.57;48.89;101880.06;5054167;28;20214;-69
2023/05/21 03:07:52;;;;;;;3.30;2.97;;;16.70;71.10;;;19.59;48.96;101880.69;5053180;28;20293;-69
2023/05/21 03:10:19;;;;;;;3.17;2.87;;;16.70;71.00;;;19.58;48.71;101879.06;5053958;28;20193;-68
2023/05/21 03:12:46;;;;;;;5.07;3.07;;;16.70;71.00;;;19.58;49.59;101871.88;5054505;28;20190;-68
2023/05/21 03:15:13;;;;;;;4.77;2.93;;;16.60;71.70;;;19.55;49.91;101869.59;5054251;28;20772;-68
2023/05/21 03:17:41;;;;;;;5.13;3.57;;;16.60;72.00;;;19.53;49.93;101869.00;5054216;28;20563;-69
2023/05/21 03:20:15;;;;;;;3.97;3.43;;;16.70;72.10;;;19.52;50.13;101858.50;5054152;28;20185;-68
2023/05/21 03:22:42;;;;;;;4.73;3.10;;;16.60;72.70;;;19.50;50.11;101860.56;5053834;28;20206;-69
2023/05/21 03:25:09;;;;;;;8.77;3.40;;;16.60;72.50;;;19.50;50.13;101856.03;5053302;28;20228;-69
2023/05/21 03:27:37;;;;;;;7.63;4.07;;;16.60;72.50;;;19.50;49.95;101857.88;5053734;28;20213;-69
2023/05/21 03:30:06;;;;;;;3.37;2.80;;;16.60;72.70;;;19.50;49.83;101857.88;5053639;28;20194;-69
2023/05/21 03:32:36;;;;;;;3.77;3.13;;;16.60;72.50;;;19.48;49.67;101860.78;5053812;28;20281;-68
2023/05/21 03:35:04;;;;;;;3.77;2.87;;;16.60;72.20;;;19.45;49.89;101853.16;5053446;28;20214;-68
2023/05/21 03:37:32;;;;;;;6.27;3.30;;;16.50;72.40;;;19.43;50.16;101854.38;5053709;28;20201;-67
2023/05/21 03:39:59;;;;;;;5.70;3.47;;;16.50;72.80;;;19.41;50.28;101857.28;5053438;28;20190;-67
2023/05/21 03:42:26;;;;;;;3.80;3.37;;;16.50;72.90;;;19.42;50.19;101858.09;5053212;28;20739;-67
2023/05/21 03:44:54;;;;;;;5.43;3.40;;;16.50;72.90;;;19.44;50.51;101850.69;5053300;28;20223;-67
2023/05/21 03:47:20;;;;;;;5.03;3.40;;;16.50;73.10;;;19.45;50.29;101852.31;5053504;28;20204;-67
2023/05/21 03:49:47;;;;;;;4.60;3.27;;;16.60;73.10;;;19.46;50.13;101859.31;5053655;28;20705;-67
2023/05/21 03:52:14;;;;;;;3.67;3.10;;;16.60;73.00;;;19.48;50.15;101858.09;5053524;28;20200;-67
2023/05/21 03:54:43;;;;;;;4.17;3.30;;;16.50;72.90;;;19.51;50.48;101856.88;5053257;28;20607;-67
2023/05/21 03:57:10;;;;;;;5.80;3.20;;;16.60;73.20;;;19.49;50.30;101859.72;5053468;28;20194;-66
2023/05/21 03:59:36;;;;;;;5.63;3.53;;;16.60;73.30;;;19.50;50.38;101856.03;5053690;28;20206;-66
2023/05/21 04:02:04;;;;;;;3.67;2.80;;;16.60;73.20;;;19.52;50.34;101861.16;5053410;28;20201;-67
2023/05/21 04:04:32;;;;;;;5.73;3.17;;;16.60;73.20;;;19.52;50.43;101859.31;5053151;28;20239;-67
2023/05/21 04:06:59;;;;;;;4.37;3.40;;;16.60;73.20;;;19.54;50.03;101861.78;5052969;28;20197;-68
2023/05/21 04:09:26;;;;;;;4.03;3.00;;;16.60;73.10;;;19.54;50.25;101862.59;5053407;28;20197;-67
2023/05/21 04:11:55;;;;;;;5.90;3.20;;;16.60;73.20;;;19.55;50.01;101858.09;5053083;28;20236;-67
2023/05/21 04:14:22;;;;;;;6.23;3.27;;;16.60;72.80;;;19.52;49.64;101863.84;5052909;28;20241;-69
2023/05/21 04:16:49;;;;;;;6.37;3.53;;;16.60;72.70;;;19.50;49.89;101861.38;5039619;28;20625;-69
2023/05/21 04:19:16;;;;;;;3.83;2.87;;;16.50;72.90;;;19.50;50.17;101860.56;5035877;28;20206;-69
2023/05/21 04:21:43;;;;;;;3.53;2.63;;;16.50;73.10;;;19.49;50.50;101869.59;5037088;28;20245;-68
2023/05/21 04:24:10;;;;;;;5.40;3.33;;;16.50;73.50;;;19.49;50.14;101858.94;5036625;28;20206;-69
2023/05/21 04:26:40;;;;;;;4.10;3.10;;;16.50;73.30;;;19.50;50.43;101868.56;5054446;28;20194;-68
2023/05/21 04:29:09;;;;;;;6.00;3.43;;;16.60;73.40;;;19.50;50.28;101860.56;5056960;28;20196;-68
2023/05/21 04:31:36;;;;;;;4.53;3.00;;;16.60;73.20;;;19.51;50.27;101863.03;5056902;28;20562;-68
2023/05/21 04:34:03;;;;;;;5.30;2.87;;;16.60;73.10;;;19.51;50.28;101862.22;5056384;28;20225;-69
2023/05/21 04:36:30;;;;;;;3.63;3.27;;;16.60;73.10;;;19.54;50.33;101856.44;5056880;28;20669;-68
2023/05/21 04:38:57;;;;;;;3.93;3.00;;;16.60;73.00;;;19.55;50.01;101868.78;5056611;28;20287;-68
2023/05/21 04:41:24;;;;;;;4.03;2.80;;;16.60;73.10;;;19.57;50.02;101856.84;5056738;28;20276;-67
2023/05/21 04:43:54;;;;;;;3.43;3.13;;;16.60;72.80;;;19.59;49.62;101864.66;5056786;28;20516;-69
2023/05/21 04:46:24;;;;;;;4.93;2.87;;;16.60;72.70;;;19.62;50.03;101864.25;5056409;28;20227;-69
2023/05/21 04:48:53;;;;;;;4.40;2.70;;;16.70;72.80;;;19.65;49.42;101858.50;5056555;28;20210;-68
2023/05/21 04:51:21;;;;;;;4.07;2.90;;;16.60;72.50;;;19.68;49.68;101866.13;5056649;28;20194;-68
2023/05/21 04:53:48;;;;;;;4.13;2.93;;;16.70;72.60;;;19.70;49.60;101856.03;5056314;28;20190;-67
2023/05/21 04:56:17;;;;;;;5.83;3.77;;;16.70;72.60;;;19.72;49.59;101853.97;5056290;28;20281;-69
2023/05/21 04:58:44;;;;;;;5.60;3.10;;;16.70;72.50;;;19.74;49.67;101851.91;5056320;28;20547;-69
2023/05/21 05:01:11;;;;;;;4.83;3.00;;;16.70;72.50;;;19.76;49.67;101855.19;5056378;28;20186;-69
2023/05/21 05:03:40;;;;;;;5.13;3.17;;;16.70;72.50;;;19.79;49.22;101860.13;5055979;28;20194;-69
2023/05/21 05:06:07;;;;;;;5.93;3.43;;;16.80;72.20;;;19.80;49.30;101843.06;5056348;28;20765;-69
2023/05/21 05:08:34;;;;;;;3.20;2.90;;;16.70;72.30;;;19.83;49.32;101850.66;5055960;28;20261;-68
2023/05/21 05:11:01;;;;;;;4.70;3.53;;;16.80;72.40;;;19.86;49.31;101855.59;5056403;28;20190;-68
2023/05/21 05:13:28;;;;;;;3.27;2.70;;;16.80;72.20;;;19.87;48.86;101849.22;5055896;28;20284;-68
2023/05/21 05:15:56;;;;;;;4.83;3.23;;;16.80;72.20;;;19.90;49.11;101839.97;5056067;28;20210;-68
2023/05/21 05:18:23;;;;;;;3.87;3.00;;;16.80;72.00;;;19.91;49.11;101839.78;5055959;28;20214;-68
2023/05/21 05:20:51;;;;;;;4.37;2.87;;;16.90;71.90;;;19.93;49.04;101839.53;5056429;28;20189;-69
2023/05/21 05:23:18;;;;;;;3.57;3.03;;;16.80;71.70;;;19.95;48.90;101837.47;5055852;28;20190;-69
2023/05/21 05:25:45;;;;;;;4.80;3.00;;;16.80;71.50;;;19.98;48.53;101837.91;5055859;28;20213;-69
2023/05/21 05:28:12;;;;;;;6.03;3.00;;;16.90;71.60;;;20.03;48.56;101834.59;5055897;28;20738;-69
2023/05/21 05:30:39;;;;;;;9.33;4.57;;;16.90;71.60;;;20.07;48.83;101836.63;5054992;28;20194;-69
2023/05/21 05:33:06;;;;;;;3.60;3.00;;;17.00;71.70;;;20.12;48.14;101842.19;5055628;28;20194;-69
2023/05/21 05:35:33;;;;;;;6.30;3.50;;;17.00;71.40;;;20.10;48.18;101836.22;5055586;28;20210;-69
2023/05/21 05:38:02;;;;;;;3.57;2.93;;;17.00;71.30;;;20.14;48.60;101828.59;5055695;28;21121;-69
2023/05/21 05:40:29;;;;;;;4.57;3.00;;;17.00;71.20;;;20.16;47.93;101840.72;5055574;28;20327;-69
2023/05/21 05:42:56;;;;;;;5.13;3.33;;;17.10;71.10;;;20.19;48.29;101834.97;5055374;28;20360;-68
2023/05/21 05:45:25;;;;;;;4.63;3.10;;;17.10;71.10;;;20.21;47.90;101830.22;5055757;28;20210;-69
2023/05/21 05:47:52;;;;;;;5.33;3.53;;;17.10;71.00;;;20.24;48.23;101832.50;5055558;28;20198;-68
2023/05/21 05:50:19;;;;;;;3.70;3.20;;;17.10;70.70;;;20.26;47.60;101824.28;5055571;28;20265;-68
2023/05/21 05:52:46;;;;;;;7.30;3.37;;;17.20;70.60;;;20.27;47.80;101825.09;5055400;28;20216;-69
2023/05/21 05:55:15;;;;;;;5.43;3.60;;;17.20;70.50;;;20.28;48.09;101827.53;5055401;28;20214;-68
2023/05/21 05:57:42;;;;;;;4.60;3.83;;;17.20;70.60;;;20.28;48.12;101827.53;5055079;28;20718;-70
2023/05/21 06:00:12;;;;;;;3.57;3.27;;;17.20;70.50;;;20.32;48.01;101825.28;5054708;28;20210;-69
2023/05/21 06:02:39;;;;;;;4.53;3.17;;;17.20;70.70;;;20.38;48.06;101827.94;5054597;28;20201;-68
2023/05/21 06:05:08;;;;;;;7.40;3.77;;;17.20;70.80;;;20.49;47.62;101818.44;5054788;28;20690;-68
2023/05/21 06:07:37;;;;;;;5.50;3.43;;;17.30;70.90;;;20.56;47.85;101827.25;5054884;28;20601;-68
2023/05/21 06:10:05;;;;;;;5.47;3.70;;;17.40;70.80;;;20.63;47.36;101830.72;5055214;28;20186;-68
2023/05/21 06:12:34;;;;;;;4.30;3.70;;;17.40;70.70;;;20.67;47.33;101822.03;5055275;28;20236;-68
2023/05/21 06:15:01;;;;;;;5.37;3.60;;;17.50;70.60;;;20.68;46.94;101823.66;5054988;28;20214;-68
2023/05/21 06:17:29;;;;;;;4.77;4.27;;;17.50;70.20;;;20.65;47.67;101815.25;5054943;28;20277;-69
2023/05/21 06:19:56;;;;;;;5.43;3.80;;;17.50;70.10;;;20.59;47.72;101819.59;5055012;28;20335;-69
2023/05/21 06:22:23;;;;;;;5.83;3.57;;;17.50;70.70;;;20.55;47.86;101825.59;5054956;28;20229;-69
2023/05/21 06:24:52;;;;;;;5.87;3.83;;;17.60;70.00;;;20.56;47.43;101813.88;5054781;28;20209;-69
2023/05/21 06:27:19;;;;;;;6.23;4.10;;;17.60;70.20;;;20.58;47.91;101814.47;5054929;28;20204;-69
2023/05/21 06:29:47;;;;;;;4.70;3.50;;;17.60;70.30;;;20.67;47.52;101821.22;5054712;28;20523;-69
2023/05/21 06:32:14;;;;;;;4.73;3.80;;;17.60;70.40;;;20.79;47.86;101822.16;5054811;28;20589;-68
2023/05/21 06:34:41;;;;;;;7.47;4.50;;;17.70;70.40;;;20.88;47.16;101820.88;5054377;28;20212;-69
2023/05/21 06:37:08;;;;;;;6.83;4.77;;;17.70;70.20;;;20.94;47.40;101820.81;5054632;28;20678;-68
2023/05/21 06:39:35;;;;;;;5.83;3.83;;;17.80;70.10;;;21.04;46.59;101823.03;5054315;28;20202;-69
2023/05/21 06:42:02;;;;;;;4.93;4.13;;;17.90;69.90;;;;;;5054364;28;20202;-69
2023/05/21 06:44:29;;;;;;;4.57;3.93;;;17.90;69.90;;;21.12;46.77;101814.78;5054164;28;20214;-69
2023/05/21 06:46:57;;;;;;;5.53;4.50;;;18.00;69.60;;;21.12;46.53;101814.78;5054427;28;20186;-69
2023/05/21 06:49:25;;;;;;;5.23;4.73;;;18.00;69.30;;;21.15;47.09;101817.03;5054321;28;20194;-69
2023/05/21 06:51:52;;;;;;;6.73;3.87;;;18.10;69.40;;;21.21;47.03;101816.13;5054327;28;20542;-69
2023/05/21 06:54:19;;;;;;;7.27;4.70;;;18.20;69.40;;;21.30;46.65;101812.16;5053955;28;20289;-69
2023/05/21 06:56:46;;;;;;;5.90;4.50;;;18.20;69.50;;;21.40;46.28;101814.34;5054197;28;20200;-69
2023/05/21 06:59:13;;;;;;;5.47;4.60;;;18.30;69.40;;;21.52;46.67;101809.91;5053880;28;20304;-69
2023/05/21 07:01:41;;;;;;;8.33;4.53;;;18.30;69.20;;;21.64;46.16;101807.31;5053671;28;20200;-68
2023/05/21 07:04:10;;;;;;;7.00;5.47;;;18.40;69.40;;;21.73;46.45;101811.38;5053295;28;20209;-68
2023/05/21 07:06:38;;;;;;;5.37;4.80;;;18.40;69.10;;;21.80;45.92;101810.25;5054111;28;20198;-68
2023/05/21 07:09:05;;;;;;;6.97;5.77;;;18.50;69.00;;;21.87;45.69;101808.34;5054096;28;20272;-69
2023/05/21 07:11:32;;;;;;;6.27;5.67;;;18.60;68.80;;;21.96;45.50;101812.41;5053554;28;20224;-68
2023/05/21 07:14:00;;;;;;;6.00;5.40;;;18.70;68.60;;;22.04;45.35;101803.22;5053614;28;20196;-68
2023/05/21 07:16:27;;;;;;;6.80;5.93;;;18.80;68.70;;;22.07;45.79;101800.09;5054034;28;20190;-68
2023/05/21 07:18:54;;;;;;;7.23;5.47;;;18.90;68.60;;;22.11;46.10;101798.59;5053620;28;20659;-69
2023/05/21 07:21:23;;;;;;;6.77;5.30;;;18.90;68.40;;;22.20;45.46;101805.31;5053875;28;20193;-68
2023/05/21 07:23:50;;;;;;;6.07;5.37;;;19.00;68.40;;;22.25;45.51;101794.69;5053825;28;20654;-68
2023/05/21 07:26:17;;;;;;;8.07;6.30;;;19.00;68.00;;;22.32;45.24;101806.19;5053691;28;20200;-68
2023/05/21 07:28:44;;;;;;;7.97;5.97;;;19.10;68.30;;;22.40;45.29;101797.81;5035628;28;20202;-69
2023/05/21 07:31:11;;;;;;;7.20;6.47;;;19.20;68.20;;;22.42;45.43;101793.03;5033499;28;20201;-68
2023/05/21 07:33:39;;;;;;;10.47;6.40;;;19.20;68.00;;;22.44;45.49;101799.00;5033336;28;20191;-68
2023/05/21 07:36:06;;;;;;;15.17;10.50;;;19.30;68.00;;;22.47;45.10;101798.56;5033395;28;20753;-68
2023/05/21 07:38:34;;;;;;;12.43;8.47;;;19.30;68.10;;;22.50;45.18;101792.75;5033511;28;20209;-68
2023/05/21 07:41:01;;;;;;;7.40;6.63;;;19.40;68.10;;;22.57;45.64;101790.78;5033536;28;20213;-68
2023/05/21 07:43:28;;;;;;;7.20;6.23;;;19.40;68.00;;;22.68;45.18;101790.03;5033494;28;20225;-68
2023/05/21 07:45:55;;;;;;;7.70;6.97;;;19.50;67.90;;;22.76;45.37;101797.78;5033686;28;20213;-68
2023/05/21 07:48:22;;;;;;;10.07;6.93;;;19.50;68.00;;;22.78;44.83;101795.66;5033553;28;20191;-67
2023/05/21 07:50:51;;;;;;;9.53;6.80;;;19.60;67.80;;;22.78;44.87;101801.03;5033410;28;20193;-67
2023/05/21 07:53:18;;;;;;;8.60;6.97;;;19.70;67.60;;;22.84;45.05;101797.44;5033017;28;20233;-67
2023/05/21 07:55:46;;;;;;;8.43;6.53;;;19.70;67.70;;;22.94;45.01;101785.34;5033629;28;20233;-68
2023/05/21 07:58:15;;;;;;;7.47;6.70;;;19.70;67.70;;;23.04;45.17;101782.88;5033532;28;20216;-67
2023/05/21 08:00:44;;;;;;;7.20;6.33;;;19.80;68.60;;;23.13;44.88;101786.88;5034130;28;20237;-67
2023/05/21 08:03:11;;;;;;;8.93;8.03;;;19.90;67.90;;;23.19;44.86;101792.16;5038594;28;20190;-67
2023/05/21 08:05:38;;;;;;;9.37;8.13;;;19.90;67.70;;;23.26;44.68;101783.97;5052620;28;20617;-67
2023/05/21 08:08:05;;;;;;;9.53;7.00;;;20.00;67.70;;;23.36;44.59;101776.19;5053377;28;20597;-67
2023/05/21 08:10:32;;;;;;;9.70;7.67;;;20.10;67.70;;;23.43;44.62;101779.56;5053276;28;20316;-67
2023/05/21 08:13:00;;;;;;;8.30;7.50;;;20.20;67.60;;;23.53;44.25;101777.13;5053245;28;20186;-67
2023/05/21 08:15:27;;;;;;;9.00;7.93;;;20.30;67.20;;;23.65;44.13;101774.44;5053441;28;20229;-67
2023/05/21 08:17:54;;;;;;;8.53;7.63;;;20.30;67.00;;;23.76;44.11;101781.66;5053300;28;20194;-68
2023/05/21 08:20:21;;;;;;;7.77;7.07;;;20.40;66.90;;;23.96;43.88;101777.50;5053050;28;20243;-67
2023/05/21 08:22:48;;;;;;;7.93;7.10;;;20.50;66.90;;;24.20;43.46;101784.50;5052726;28;20194;-68
2023/05/21 08:25:15;;;;;;;8.10;7.30;;;20.60;66.70;;;24.33;42.78;101777.22;5046857;28;20690;-67
2023/05/21 08:27:42;;;;;;;8.87;7.90;;;20.80;66.20;;;24.38;42.95;101780.00;5035414;28;20189;-67
2023/05/21 08:30:12;;;;;;;8.57;7.63;;;20.90;65.50;;;24.39;42.94;101777.06;5033229;28;20187;-67
2023/05/21 08:32:38;;;;;;;11.00;7.40;;;21.00;65.10;;;24.44;42.52;101779.06;5032762;28;20191;-67
2023/05/21 08:35:07;;;;;;;7.80;6.03;;;21.10;64.90;;;24.59;42.75;101779.31;5032459;28;20268;-67
2023/05/21 08:37:34;;;;;;;7.87;7.00;;;21.20;65.00;;;24.81;42.33;101783.00;5032852;28;20218;-68
2023/05/21 08:40:03;;;;;;;7.27;6.53;;;21.30;64.80;;;25.03;42.05;101783.91;5032796;28;20691;-67
2023/05/21 08:42:42;;;;;;;8.73;7.83;;;21.40;64.60;;;25.20;41.53;101784.72;5032624;28;20226;-67
2023/05/21 08:45:13;;;;;;;8.37;7.57;;;21.60;64.40;;;25.38;41.39;101781.78;5032691;28;20625;-68
2023/05/21 08:47:42;;;;;;;9.57;8.53;;;21.70;63.80;;;25.48;40.62;101776.56;5032640;28;20194;-68
2023/05/21 08:50:17;;;;;;;8.43;7.70;;;21.90;63.20;;;25.46;41.10;101780.56;5032779;28;20197;-68
2023/05/21 08:52:44;;;;;;;9.30;7.90;;;22.00;62.90;;;25.56;41.03;101778.03;5031517;28;20198;-68
2023/05/21 08:55:12;;;;;;;9.33;8.20;;;22.10;62.80;;;25.63;40.59;101775.13;5032416;28;20306;-68
2023/05/21 08:57:42;;;;;;;8.50;7.70;;;22.20;62.40;;;25.76;40.67;101770.22;5032646;28;20233;-68
2023/05/21 09:00:13;;;;;;;9.03;8.13;;;22.30;62.20;;;25.94;40.34;101766.38;5032538;28;20252;-68
2023/05/21 09:02:42;;;;;;;9.40;8.43;;;22.40;62.20;;;26.16;40.45;101767.25;5033239;28;20183;-68
2023/05/21 09:05:11;;;;;;;10.00;8.40;;;22.50;62.20;;;26.38;39.91;101775.31;5052861;28;20296;-68
2023/05/21 09:07:45;;;;;;;9.83;8.70;;;22.60;61.60;;;26.59;39.28;101767.19;5055788;28;20205;-68
2023/05/21 09:10:16;;;;;;;10.40;9.30;;;22.80;61.50;;;26.93;38.64;101761.56;5055928;28;20178;-68
2023/05/21 09:12:44;;;;;;;10.27;8.63;;;22.90;61.00;;;27.19;38.36;101755.28;5056188;28;20274;-69
2023/05/21 09:15:12;;;;;;;7.90;7.17;;;23.10;60.20;;;27.50;37.84;101757.94;5055931;28;20213;-69
2023/05/21 09:17:39;;;;;;;8.47;7.77;;;23.40;60.40;;;27.87;37.49;101757.84;5056382;28;20204;-69
2023/05/21 09:20:11;;;;;;;10.93;9.20;;;23.60;60.10;;;28.18;36.60;101759.63;5055713;28;20210;-69
2023/05/21 09:22:43;;;;;;;9.73;8.80;;;23.80;59.30;;;28.52;36.26;101764.59;5054385;28;20236;-69
2023/05/21 09:25:11;;;;;;;9.07;8.27;;;24.00;58.60;;;28.69;35.83;101759.78;5055619;28;20210;-70
2023/05/21 09:27:39;;;;;;;10.93;9.87;;;24.30;58.30;;;28.63;35.49;101760.84;5055543;28;20186;-69
2023/05/21 09:30:12;;;;;;;9.03;7.67;;;24.40;57.30;;;28.52;35.90;101761.88;5055888;28;20265;-70
2023/05/21 09:32:40;;;;;;;9.93;8.97;;;24.60;57.30;;;28.47;35.94;101764.56;5055835;28;20265;-69
2023/05/21 09:35:09;;;;;;;10.03;9.03;;;24.60;57.10;;;28.30;36.03;101753.97;5055454;28;20209;-69
2023/05/21 09:37:37;;;;;;;12.33;8.77;;;24.60;56.60;;;28.15;36.36;101760.16;5055213;28;20696;-69
2023/05/21 09:40:14;;;;;;;11.47;9.27;;;24.60;56.60;;;28.03;36.52;101762.28;5053469;28;20218;-69
2023/05/21 09:42:42;;;;;;;11.67;9.17;;;24.60;56.70;;;28.00;37.04;101762.81;5055404;28;20197;-69
2023/05/21 09:45:10;;;;;;;9.43;8.47;;;24.50;56.80;;;28.03;36.52;101762.28;5055320;28;20301;-69
2023/05/21 09:47:43;;;;;;;10.47;9.37;;;24.50;57.00;;;28.18;36.50;101765.06;5055401;28;20666;-69
2023/05/21 09:50:11;;;;;;;10.00;9.00;;;24.60;57.20;;;28.38;36.43;101766.19;5055291;28;20543;-69
2023/05/21 09:52:39;;;;;;;10.17;9.17;;;24.60;57.00;;;28.50;36.06;101761.34;5054996;28;20202;-70
2023/05/21 09:55:13;;;;;;;11.40;10.20;;;24.70;56.70;;;28.66;35.47;101749.47;5055006;28;20233;-69
2023/05/21 09:57:41;;;;;;;11.53;10.00;;;24.80;56.50;;;28.81;35.37;101744.06;5055500;28;20178;-69
2023/05/21 10:00:17;;;;;;;9.93;8.93;;;24.90;56.40;;;29.02;35.59;101748.38;5054771;28;20220;-69
2023/05/21 10:02:46;;;;;;;11.17;10.03;;;25.10;56.40;;;29.11;35.14;101740.50;5055243;28;20549;-69
2023/05/21 10:05:15;;;;;;;10.90;9.63;;;25.20;55.90;;;29.12;35.07;101737.50;5054858;28;20217;-69
2023/05/21 10:07:48;;;;;;;11.73;9.00;;;25.30;55.50;;;29.11;34.94;101735.91;5054781;28;20194;-69
2023/05/21 10:10:19;;;;;;;12.00;9.23;;;25.30;55.20;;;29.05;35.58;101736.97;5055180;28;20194;-69
2023/05/21 10:12:52;;;;;;;9.60;8.80;;;25.40;55.40;;;28.97;35.33;101731.28;5054710;28;20174;-69
2023/05/21 10:15:23;;;;;;;10.70;9.80;;;25.40;55.20;;;28.92;35.96;101731.28;5054158;28;20620;-69
2023/05/21 10:17:54;;;;;;;10.37;9.37;;;25.40;55.40;;;28.92;35.46;101731.28;5054367;28;20182;-69